Terminal Aerodrome Forecast
Issued by NWS Goodland, KS

Current Version | Previous Version | Text Only | Print | Product List | Glossary On
Versions: 1 2 3 4 5 6 7 8 9 10 11 12 13 14 15 16 17
919
FTUS43 KGLD 160524
TAFGLD
TAF
KGLD 160524Z 1606/1706 33007KT P6SM SKC
     FM162000 23005KT P6SM SKC
     FM162300 17006KT P6SM SKC=

USA.gov is the U.S. government's official web portal to all federal, state and local government web resources and services.